Time;durP1;ratioP1;P1;durP2;ratioP2;P2;SDS_P1;SDS_P2;PMS_P1;PMS_P2;Temp;Humidity;BMP_temperature;BMP_pressure;BME280_temperature;BME280_humidity;BME280_pressure;Samples;Min_cycle;Max_cycle;Signal;HPM_P1;HPM_P2
2021/12/23 00:01:57;;;;;;;16.38;8.85;;;-0.70;99.90;;;;;;4979208;28;20062;-81
2021/12/23 00:04:24;;;;;;;35.65;9.50;;;-0.60;99.90;;;;;;4978869;28;20057;-81
2021/12/23 00:06:49;;;;;;;19.05;9.20;;;-0.50;99.90;;;;;;4978281;28;20535;-81
2021/12/23 00:09:15;;;;;;;14.77;8.02;;;-0.60;99.90;;;;;;4978659;28;20097;-81
2021/12/23 00:11:42;;;;;;;16.63;8.40;;;-0.60;99.90;;;;;;4978479;28;20463;-81
2021/12/23 00:14:10;;;;;;;17.52;8.00;;;-0.60;99.90;;;;;;4977961;28;20050;-81
2021/12/23 00:16:55;;;;;;;17.10;8.73;;;-0.60;99.90;;;;;;4961704;28;20491;-81
2021/12/23 00:24:41;;;;;;;17.02;8.55;;;-0.60;99.90;;;;;;4979240;28;20055;-81
2021/12/23 00:27:08;;;;;;;20.30;8.57;;;-0.50;99.90;;;;;;4979099;28;20499;-81
2021/12/23 00:29:34;;;;;;;19.67;9.20;;;-0.40;99.90;;;;;;4978484;28;20471;-81
2021/12/23 00:32:04;;;;;;;17.33;8.70;;;-0.50;99.90;;;;;;4962044;28;20043;-81
2021/12/23 00:34:30;;;;;;;19.90;9.65;;;-0.50;99.90;;;;;;4978255;28;20495;-81
2021/12/23 00:36:57;;;;;;;17.10;8.88;;;-0.50;99.90;;;;;;4978224;28;20042;-81
2021/12/23 00:39:23;;;;;;;15.30;8.43;;;-0.50;99.90;;;;;;4979174;28;20487;-81
2021/12/23 00:41:51;;;;;;;18.50;9.43;;;-0.50;99.90;;;;;;4978455;28;20045;-81
2021/12/23 00:44:17;;;;;;;19.33;9.77;;;-0.50;99.90;;;;;;4979043;28;20098;-81
2021/12/23 00:46:42;;;;;;;20.33;8.93;;;-0.40;99.90;;;;;;4962584;28;20522;-81
2021/12/23 00:49:08;;;;;;;16.63;8.60;;;-0.50;99.90;;;;;;4963238;28;20042;-81
2021/12/23 00:51:34;;;;;;;17.65;9.07;;;-0.50;99.90;;;;;;4979184;28;20432;-81
2021/12/23 00:54:04;;;;;;;18.42;9.02;;;-0.50;99.90;;;;;;4979148;28;20042;-81
2021/12/23 00:56:35;;;;;;;19.23;9.45;;;-0.40;99.90;;;;;;4979971;28;20043;-81
2021/12/23 00:59:02;;;;;;;15.65;9.20;;;-0.40;99.90;;;;;;4978390;28;20174;-81
2021/12/23 01:01:27;;;;;;;18.80;9.57;;;-0.40;99.90;;;;;;4975399;28;20391;-79
2021/12/23 01:03:53;;;;;;;24.00;9.48;;;-0.40;99.90;;;;;;4974254;28;20048;-79
2021/12/23 01:06:18;;;;;;;19.23;9.50;;;-0.40;99.90;;;;;;4973632;28;20403;-79
2021/12/23 01:08:44;;;;;;;17.27;8.65;;;-0.40;99.90;;;;;;4974047;28;20065;-79
2021/12/23 01:11:10;;;;;;;20.38;9.23;;;-0.30;99.90;;;;;;4973747;28;20047;-79
2021/12/23 01:13:37;;;;;;;21.27;9.10;;;-0.40;99.90;;;;;;4973945;28;20097;-79
2021/12/23 01:16:06;;;;;;;18.13;9.05;;;-0.40;99.90;;;;;;4973712;28;20439;-79
2021/12/23 01:18:43;;;;;;;16.52;9.77;;;-0.40;99.90;;;;;;4974811;28;20043;-79
2021/12/23 01:21:16;;;;;;;15.43;9.02;;;-0.40;99.90;;;;;;4973947;28;20514;-79
2021/12/23 01:23:45;;;;;;;19.42;9.57;;;-0.40;99.90;;;;;;4973567;28;20105;-79
2021/12/23 01:26:12;;;;;;;17.42;9.32;;;-0.40;99.90;;;;;;4973392;28;20042;-79
2021/12/23 01:28:37;;;;;;;19.92;9.05;;;-0.40;99.90;;;;;;4973713;28;20047;-79
2021/12/23 01:31:03;;;;;;;16.88;9.20;;;-0.40;99.90;;;;;;4973369;28;20549;-79
2021/12/23 01:33:28;;;;;;;17.48;8.95;;;-0.40;99.90;;;;;;4973339;28;20571;-79
2021/12/23 01:35:54;;;;;;;16.88;9.15;;;-0.40;99.90;;;;;;4972957;28;20106;-79
2021/12/23 01:38:19;;;;;;;15.20;9.05;;;-0.40;99.90;;;;;;4973392;28;20043;-79
2021/12/23 01:40:46;;;;;;;17.33;10.10;;;-0.40;99.90;;;;;;4973118;28;20051;-79
2021/12/23 01:43:13;;;;;;;23.25;10.52;;;-0.40;99.90;;;;;;4973182;28;20038;-79
2021/12/23 01:45:44;;;;;;;21.35;9.25;;;-0.40;99.90;;;;;;4972848;28;20074;-79
2021/12/23 01:48:10;;;;;;;17.43;9.60;;;-0.40;99.90;;;;;;4973025;28;20462;-79
2021/12/23 01:50:37;;;;;;;18.85;9.07;;;-0.40;99.90;;;;;;4972949;28;20047;-80
2021/12/23 01:53:03;;;;;;;26.67;9.90;;;-0.40;99.90;;;;;;4972427;28;20051;-79
2021/12/23 01:55:29;;;;;;;22.73;10.60;;;-0.40;99.90;;;;;;4972543;28;20042;-79
2021/12/23 01:57:57;;;;;;;18.42;9.52;;;-0.40;99.90;;;;;;4972829;28;20534;-79
2021/12/23 02:00:26;;;;;;;25.50;10.25;;;-0.30;99.90;;;;;;4957035;28;20050;-79
2021/12/23 02:02:54;;;;;;;20.35;10.65;;;-0.30;99.90;;;;;;4972948;28;20051;-79
2021/12/23 02:05:20;;;;;;;20.67;10.40;;;-0.30;99.90;;;;;;4972794;28;20069;-79
2021/12/23 02:07:46;;;;;;;26.58;9.65;;;-0.30;99.90;;;;;;4972901;28;20331;-79
2021/12/23 02:10:11;;;;;;;19.98;11.02;;;-0.30;99.90;;;;;;4972592;28;20049;-79
2021/12/23 02:12:42;;;;;;;20.08;10.32;;;-0.30;99.90;;;;;;4973800;28;20043;-79
2021/12/23 02:15:08;;;;;;;20.75;9.50;;;-0.30;99.90;;;;;;4973582;28;20057;-79
2021/12/23 02:17:37;;;;;;;22.73;10.63;;;-0.30;99.90;;;;;;4972376;28;20035;-79
2021/12/23 02:20:07;;;;;;;21.25;11.40;;;-0.30;99.90;;;;;;4972522;28;20069;-79
2021/12/23 02:22:33;;;;;;;18.25;9.38;;;-0.30;99.90;;;;;;4972585;28;20503;-79
2021/12/23 02:24:59;;;;;;;19.77;9.80;;;-0.30;99.90;;;;;;4972166;28;20122;-79
2021/12/23 02:27:24;;;;;;;20.48;10.25;;;-0.30;99.90;;;;;;4972432;28;20451;-79
2021/12/23 02:29:50;;;;;;;18.92;9.65;;;-0.30;99.90;;;;;;4972547;28;20500;-79
2021/12/23 02:32:15;;;;;;;20.52;9.30;;;-0.30;99.90;;;;;;4972231;28;20046;-79
2021/12/23 02:34:41;;;;;;;17.90;9.85;;;-0.20;99.90;;;;;;4972071;28;20078;-79
2021/12/23 02:37:07;;;;;;;20.90;10.70;;;-0.20;99.90;;;;;;4972094;28;20460;-79
2021/12/23 02:39:33;;;;;;;20.70;9.60;;;-0.20;99.90;;;;;;4972689;28;20373;-79
2021/12/23 02:41:59;;;;;;;20.80;11.00;;;-0.20;99.90;;;;;;4972917;28;20054;-79
2021/12/23 02:44:24;;;;;;;21.23;10.00;;;-0.20;99.90;;;;;;4956799;28;20487;-79
2021/12/23 02:46:50;;;;;;;19.08;9.70;;;-0.20;99.90;;;;;;4973308;28;20562;-79
2021/12/23 02:49:16;;;;;;;20.15;10.00;;;-0.30;99.90;;;;;;4974008;28;20507;-79
2021/12/23 02:51:41;;;;;;;19.77;8.75;;;-0.20;99.90;;;;;;4973827;28;20494;-79
2021/12/23 02:54:07;;;;;;;22.33;10.48;;;-0.20;99.90;;;;;;4974995;28;20045;-79
2021/12/23 02:56:33;;;;;;;19.48;10.07;;;-0.20;99.90;;;;;;4973008;28;20054;-79
2021/12/23 02:59:00;;;;;;;21.67;10.63;;;-0.20;99.90;;;;;;4973894;28;20054;-79
2021/12/23 03:01:25;;;;;;;22.02;10.23;;;-0.20;99.90;;;;;;4973662;28;20038;-79
2021/12/23 03:03:51;;;;;;;19.85;10.48;;;-0.20;99.90;;;;;;4974294;28;20046;-79
2021/12/23 03:06:19;;;;;;;19.92;9.77;;;-0.20;99.90;;;;;;4972606;28;20515;-79
2021/12/23 03:08:51;;;;;;;21.67;10.00;;;-0.20;99.90;;;;;;4972652;28;20054;-79
2021/12/23 03:11:20;;;;;;;21.90;10.02;;;-0.30;99.90;;;;;;4972328;28;20061;-79
2021/12/23 03:13:47;;;;;;;18.20;10.25;;;-0.30;99.90;;;;;;4971890;28;20046;-79
2021/12/23 03:16:17;;;;;;;20.60;10.52;;;-0.30;99.90;;;;;;4971583;28;20109;-79
2021/12/23 03:18:43;;;;;;;21.27;10.98;;;-0.30;99.90;;;;;;4972071;28;20496;-79
2021/12/23 03:21:08;;;;;;;21.25;10.50;;;-0.30;99.90;;;;;;4971820;28;20107;-79
2021/12/23 03:23:34;;;;;;;26.77;11.38;;;-0.30;99.90;;;;;;4971732;28;20399;-79
2021/12/23 03:26:01;;;;;;;22.88;10.82;;;-0.30;99.90;;;;;;4971716;28;20118;-79
2021/12/23 03:28:26;;;;;;;19.85;10.30;;;-0.30;99.90;;;;;;4971664;28;20046;-79
2021/12/23 03:30:52;;;;;;;18.08;9.68;;;-0.20;99.90;;;;;;4971545;28;20161;-79
2021/12/23 03:33:18;;;;;;;27.38;10.52;;;-0.20;99.90;;;;;;4971667;28;20338;-79
2021/12/23 03:35:45;;;;;;;21.10;10.20;;;-0.20;99.90;;;;;;4971537;28;20490;-79
2021/12/23 03:38:11;;;;;;;23.63;9.75;;;-0.20;99.90;;;;;;4971506;28;20054;-79
2021/12/23 03:40:38;;;;;;;21.17;10.13;;;-0.20;99.90;;;;;;4972420;28;20510;-79
2021/12/23 03:43:04;;;;;;;23.25;11.40;;;-0.20;99.90;;;;;;4972212;28;20054;-79
2021/12/23 03:45:30;;;;;;;22.33;10.63;;;-0.20;99.90;;;;;;4971741;28;20045;-79
2021/12/23 03:47:57;;;;;;;25.15;11.57;;;-0.20;99.90;;;;;;4971453;28;20053;-79
2021/12/23 03:50:25;;;;;;;22.42;10.10;;;-0.20;99.90;;;;;;4971595;28;20499;-79
2021/12/23 03:52:51;;;;;;;26.25;11.05;;;-0.20;99.90;;;;;;4972902;28;20045;-79
2021/12/23 03:55:17;;;;;;;18.77;10.13;;;-0.20;99.90;;;;;;4971398;28;20093;-79
2021/12/23 03:57:43;;;;;;;22.08;10.93;;;-0.20;99.90;;;;;;4971663;28;20113;-79
2021/12/23 04:00:13;;;;;;;22.25;11.07;;;-0.20;99.90;;;;;;4956106;28;20043;-79
2021/12/23 04:02:39;;;;;;;20.88;10.15;;;-0.20;99.90;;;;;;4971802;28;20507;-79
2021/12/23 04:05:06;;;;;;;21.08;11.00;;;-0.20;99.90;;;;;;4971438;28;20043;-79
2021/12/23 04:07:33;;;;;;;23.63;11.65;;;-0.20;99.90;;;;;;4971794;28;20128;-79
2021/12/23 04:09:59;;;;;;;19.75;10.55;;;-0.20;99.90;;;;;;4972679;28;20571;-80
2021/12/23 04:12:24;;;;;;;22.77;10.93;;;-0.20;99.90;;;;;;4974697;28;20085;-80
2021/12/23 04:14:50;;;;;;;25.08;10.45;;;-0.20;99.90;;;;;;4973927;28;20050;-80
2021/12/23 04:17:15;;;;;;;20.45;11.05;;;-0.20;99.90;;;;;;4976846;28;20183;-80
2021/12/23 04:19:43;;;;;;;20.92;11.05;;;-0.20;99.90;;;;;;4977904;28;20047;-80
2021/12/23 04:22:09;;;;;;;23.15;11.40;;;-0.20;99.90;;;;;;4977316;28;20057;-80
2021/12/23 04:24:35;;;;;;;20.73;10.18;;;-0.20;99.90;;;;;;4977822;28;20042;-80
2021/12/23 04:27:00;;;;;;;23.50;10.90;;;-0.20;99.90;;;;;;4978366;28;20093;-80
2021/12/23 04:29:26;;;;;;;22.27;11.10;;;-0.20;99.90;;;;;;4977377;28;20038;-80
2021/12/23 04:31:51;;;;;;;23.52;9.90;;;-0.20;99.90;;;;;;4977967;28;20038;-80
2021/12/23 04:34:17;;;;;;;24.48;11.82;;;-0.20;99.90;;;;;;4978069;28;20045;-80
2021/12/23 04:36:43;;;;;;;24.65;11.23;;;-0.20;99.90;;;;;;4978371;28;20050;-80
2021/12/23 04:39:09;;;;;;;20.60;10.13;;;-0.20;99.90;;;;;;4978390;28;20113;-80
2021/12/23 04:41:34;;;;;;;21.58;10.43;;;-0.20;99.90;;;;;;4978229;28;20070;-80
2021/12/23 04:44:00;;;;;;;23.98;10.65;;;-0.20;99.90;;;;;;4961505;28;20469;-80
2021/12/23 04:46:26;;;;;;;23.08;11.65;;;-0.10;99.90;;;;;;4976534;28;20039;-80
2021/12/23 04:48:52;;;;;;;23.17;11.32;;;-0.20;99.90;;;;;;4977289;28;20059;-80
2021/12/23 04:51:19;;;;;;;23.05;11.82;;;-0.10;99.90;;;;;;4977440;28;20487;-80
2021/12/23 04:53:45;;;;;;;22.38;10.75;;;-0.10;99.90;;;;;;4977920;28;20050;-80
2021/12/23 04:56:12;;;;;;;27.92;12.52;;;-0.10;99.90;;;;;;4976492;28;20078;-80
2021/12/23 04:58:38;;;;;;;20.38;10.77;;;-0.10;99.90;;;;;;4977154;28;20053;-80
2021/12/23 05:01:06;;;;;;;24.92;11.20;;;-0.10;99.90;;;;;;4977234;28;20414;-80
2021/12/23 05:03:32;;;;;;;27.75;11.32;;;-0.10;99.90;;;;;;4977672;28;20054;-80
2021/12/23 05:05:57;;;;;;;21.52;10.77;;;-0.10;99.90;;;;;;4977227;28;20525;-80
2021/12/23 05:08:23;;;;;;;23.33;11.40;;;-0.10;99.90;;;;;;4977161;28;20045;-80
2021/12/23 05:10:48;;;;;;;22.55;10.80;;;-0.10;99.90;;;;;;4976995;28;20407;-80
2021/12/23 05:13:14;;;;;;;24.65;11.10;;;-0.10;99.90;;;;;;4960667;28;20045;-80
2021/12/23 05:15:40;;;;;;;25.98;11.02;;;-0.10;99.90;;;;;;4976333;28;20446;-80
2021/12/23 05:18:06;;;;;;;19.30;11.10;;;-0.10;99.90;;;;;;4976248;28;20038;-80
2021/12/23 05:20:32;;;;;;;27.45;11.35;;;0.00;99.90;;;;;;4976293;28;20126;-80
2021/12/23 05:22:57;;;;;;;23.35;11.43;;;-0.10;99.90;;;;;;4960926;28;20107;-80
2021/12/23 05:25:23;;;;;;;20.92;11.73;;;-0.10;99.90;;;;;;4975971;28;20038;-79
2021/12/23 05:27:54;;;;;;;25.58;10.32;;;0.00;99.90;;;;;;4973556;28;20057;-79
2021/12/23 05:30:22;;;;;;;25.90;11.50;;;0.00;99.90;;;;;;4973489;28;20051;-79
2021/12/23 05:32:48;;;;;;;23.30;12.15;;;0.00;99.90;;;;;;4975199;28;20043;-82
2021/12/23 05:35:16;;;;;;;25.27;10.63;;;0.00;99.90;;;;;;4964598;28;20041;-82
2021/12/23 05:37:43;;;;;;;23.23;11.32;;;0.00;99.90;;;;;;4964018;28;20121;-82
2021/12/23 05:40:10;;;;;;;22.13;12.00;;;0.10;99.90;;;;;;4981092;28;20043;-82
2021/12/23 05:42:36;;;;;;;22.77;11.25;;;0.00;99.90;;;;;;4981300;28;20054;-82
2021/12/23 05:45:01;;;;;;;27.38;11.93;;;0.00;99.90;;;;;;4980330;28;20043;-81
2021/12/23 05:47:27;;;;;;;24.85;10.85;;;0.00;99.90;;;;;;4980141;28;20388;-81
2021/12/23 05:49:53;;;;;;;23.13;12.13;;;0.00;99.90;;;;;;4981284;28;20043;-81
2021/12/23 05:52:18;;;;;;;22.88;11.45;;;0.00;99.90;;;;;;4964370;28;20077;-81
2021/12/23 05:54:44;;;;;;;20.13;10.48;;;0.00;99.90;;;;;;4980319;28;20073;-81
2021/12/23 05:57:09;;;;;;;25.90;12.25;;;0.00;99.90;;;;;;4981730;28;20098;-81
2021/12/23 05:59:36;;;;;;;28.05;12.38;;;0.00;99.90;;;;;;4964808;28;20038;-82
2021/12/23 06:02:05;;;;;;;24.58;11.63;;;0.00;99.90;;;;;;4983713;28;20042;-82
2021/12/23 06:04:31;;;;;;;27.42;13.18;;;0.00;99.90;;;;;;4983309;28;20038;-82
2021/12/23 06:06:57;;;;;;;22.83;12.07;;;0.00;99.90;;;;;;4964413;28;20425;-81
2021/12/23 06:09:23;;;;;;;26.20;11.77;;;0.00;99.90;;;;;;4983159;28;20070;-81
2021/12/23 06:11:48;;;;;;;40.25;14.13;;;0.00;99.90;;;;;;4981813;28;20050;-81
2021/12/23 06:14:16;;;;;;;21.75;10.93;;;0.00;99.90;;;;;;4982390;28;20396;-81
2021/12/23 06:16:41;;;;;;;25.67;12.55;;;0.00;99.90;;;;;;4983532;28;20047;-81
2021/12/23 06:19:07;;;;;;;23.45;12.18;;;0.00;99.90;;;;;;4982629;28;20039;-82
2021/12/23 06:21:33;;;;;;;26.30;13.15;;;0.00;99.90;;;;;;4963694;28;20047;-82
2021/12/23 06:23:59;;;;;;;29.73;13.65;;;0.10;99.90;;;;;;4982435;28;20062;-81
2021/12/23 06:26:25;;;;;;;25.35;11.82;;;0.00;99.90;;;;;;4996676;28;20043;-81
2021/12/23 06:28:50;;;;;;;23.55;12.52;;;-0.10;99.90;;;;;;4980792;28;20081;-81
2021/12/23 06:31:16;;;;;;;26.83;12.95;;;0.00;99.90;;;;;;4981600;28;20034;-81
2021/12/23 06:33:41;;;;;;;22.23;11.00;;;0.00;99.90;;;;;;4963838;28;20078;-82
2021/12/23 06:36:07;;;;;;;28.52;13.35;;;0.00;99.90;;;;;;4980244;28;20097;-82
2021/12/23 06:38:35;;;;;;;24.70;12.13;;;0.00;99.90;;;;;;4978450;28;20074;-82
2021/12/23 06:41:01;;;;;;;28.00;12.30;;;0.00;99.90;;;;;;4978908;28;20047;-81
2021/12/23 06:43:27;;;;;;;25.98;13.45;;;0.10;99.90;;;;;;4978930;28;20043;-82
2021/12/23 06:45:52;;;;;;;28.48;12.43;;;0.10;99.90;;;;;;4978103;28;20050;-79
2021/12/23 06:48:18;;;;;;;24.55;12.48;;;0.10;99.90;;;;;;4977979;28;20092;-82
2021/12/23 06:50:45;;;;;;;29.63;13.20;;;0.10;99.90;;;;;;4962094;28;20039;-82
2021/12/23 06:53:13;;;;;;;31.38;13.60;;;0.00;99.90;;;;;;4978338;28;20046;-82
2021/12/23 06:55:40;;;;;;;22.83;11.60;;;0.10;99.90;;;;;;4974576;28;20499;-79
2021/12/23 06:58:06;;;;;;;26.25;11.57;;;0.10;99.90;;;;;;4973809;28;20053;-79
2021/12/23 07:00:31;;;;;;;24.27;13.80;;;0.10;99.90;;;;;;4973257;28;20055;-79
2021/12/23 07:02:58;;;;;;;29.40;13.38;;;0.10;99.90;;;;;;4973556;28;20043;-79
2021/12/23 07:05:23;;;;;;;27.75;12.93;;;0.10;99.90;;;;;;4989154;28;20054;-79
2021/12/23 07:07:58;;;;;;;28.95;12.70;;;0.20;99.90;;;;;;4972659;28;20097;-79
2021/12/23 07:10:26;;;;;;;23.00;11.98;;;0.10;99.90;;;;;;4973038;28;20049;-79
2021/12/23 07:12:53;;;;;;;27.48;12.98;;;0.20;99.90;;;;;;4971806;28;20187;-79
2021/12/23 07:15:19;;;;;;;26.52;13.30;;;0.20;99.90;;;;;;4971470;28;20085;-79
2021/12/23 07:17:45;;;;;;;29.88;12.77;;;0.20;99.90;;;;;;4971923;28;20034;-79
2021/12/23 07:20:11;;;;;;;26.50;12.23;;;0.20;99.90;;;;;;4973025;28;20060;-79
2021/12/23 07:22:36;;;;;;;27.55;12.55;;;0.20;99.90;;;;;;4973361;28;20035;-79
2021/12/23 07:25:03;;;;;;;22.25;11.77;;;0.20;99.90;;;;;;4973616;28;20606;-79
2021/12/23 07:27:29;;;;;;;25.88;13.57;;;0.20;99.90;;;;;;4973647;28;20125;-79
2021/12/23 07:29:54;;;;;;;26.30;12.55;;;0.20;99.90;;;;;;4973340;28;20070;-79
2021/12/23 07:32:20;;;;;;;26.02;12.60;;;0.20;99.90;;;;;;4973516;28;20051;-79
2021/12/23 07:34:45;;;;;;;26.27;11.63;;;0.20;99.90;;;;;;4974059;28;20042;-79
2021/12/23 07:37:12;;;;;;;27.92;13.57;;;0.20;99.90;;;;;;4959165;28;20035;-81
2021/12/23 07:39:39;;;;;;;27.73;13.35;;;0.20;99.90;;;;;;4959374;28;20042;-80
2021/12/23 07:42:06;;;;;;;30.20;13.00;;;0.20;99.90;;;;;;4976084;28;20035;-81
2021/12/23 07:44:33;;;;;;;25.58;12.80;;;0.20;99.90;;;;;;4975556;28;20170;-81
2021/12/23 07:46:59;;;;;;;30.38;13.27;;;0.20;99.90;;;;;;4975713;28;20411;-81
2021/12/23 07:49:25;;;;;;;25.70;12.50;;;0.10;99.90;;;;;;4975343;28;20053;-81
2021/12/23 07:51:50;;;;;;;27.05;13.63;;;0.20;99.90;;;;;;4978492;28;20050;-80
2021/12/23 07:54:16;;;;;;;29.70;14.00;;;0.10;99.90;;;;;;4979279;28;20051;-81
2021/12/23 07:56:41;;;;;;;26.95;14.30;;;0.20;99.90;;;;;;4978754;28;20041;-81
2021/12/23 07:59:07;;;;;;;26.80;13.23;;;0.20;99.90;;;;;;4978581;28;20038;-81
2021/12/23 08:01:33;;;;;;;27.67;13.18;;;0.20;99.90;;;;;;4979294;28;20034;-81
2021/12/23 08:03:58;;;;;;;27.77;11.93;;;0.20;99.90;;;;;;4978719;28;20041;-81
2021/12/23 08:06:24;;;;;;;27.58;13.38;;;0.20;99.90;;;;;;4978642;28;20097;-80
2021/12/23 08:08:49;;;;;;;26.67;12.98;;;0.20;99.90;;;;;;4979023;28;20518;-80
2021/12/23 08:11:15;;;;;;;30.67;13.85;;;0.20;99.90;;;;;;4978260;28;20047;-81
2021/12/23 08:13:41;;;;;;;32.72;14.13;;;0.20;99.90;;;;;;4978463;28;20042;-80
2021/12/23 08:16:06;;;;;;;28.23;14.70;;;0.20;99.90;;;;;;4977218;28;20489;-79
2021/12/23 08:18:33;;;;;;;31.77;13.90;;;0.30;99.90;;;;;;4961507;28;20178;-79
2021/12/23 08:21:00;;;;;;;30.55;14.32;;;0.20;99.90;;;;;;4977911;28;20042;-79
2021/12/23 08:23:26;;;;;;;34.63;15.65;;;0.30;99.90;;;;;;4977734;28;20042;-79
2021/12/23 08:25:53;;;;;;;27.88;13.10;;;0.30;99.90;;;;;;4976935;28;20101;-80
2021/12/23 08:28:19;;;;;;;30.42;13.52;;;0.20;99.90;;;;;;4977477;28;20054;-80
2021/12/23 08:30:44;;;;;;;31.20;15.23;;;0.20;99.90;;;;;;4977310;28;20045;-80
2021/12/23 08:33:11;;;;;;;32.25;14.43;;;0.30;99.90;;;;;;4976656;28;20046;-80
2021/12/23 08:35:37;;;;;;;35.30;15.52;;;0.20;99.90;;;;;;4976847;28;20053;-79
2021/12/23 08:38:04;;;;;;;33.80;15.50;;;0.20;99.90;;;;;;4978613;28;20129;-79
2021/12/23 08:40:29;;;;;;;32.75;15.07;;;0.20;99.90;;;;;;4977400;28;20566;-79
2021/12/23 08:42:56;;;;;;;29.40;15.07;;;0.20;99.90;;;;;;4976826;28;20043;-79
2021/12/23 08:45:24;;;;;;;36.92;17.08;;;0.30;99.90;;;;;;4977231;28;20043;-80
2021/12/23 08:47:51;;;;;;;30.08;14.30;;;0.20;99.90;;;;;;4977089;28;20533;-79
2021/12/23 08:50:18;;;;;;;34.75;15.45;;;0.20;99.90;;;;;;4976959;28;20438;-79
2021/12/23 08:52:45;;;;;;;35.72;16.58;;;0.20;99.90;;;;;;4976092;28;20038;-80
2021/12/23 08:55:12;;;;;;;32.55;15.63;;;0.30;99.90;;;;;;4977453;28;20042;-79
2021/12/23 08:57:38;;;;;;;37.67;15.98;;;0.30;99.90;;;;;;4977230;28;20046;-79
2021/12/23 09:00:07;;;;;;;42.42;18.73;;;0.30;99.90;;;;;;4978588;28;20039;-79
2021/12/23 09:02:33;;;;;;;42.22;15.90;;;0.30;99.90;;;;;;4974704;28;20047;-79
2021/12/23 09:04:58;;;;;;;42.67;17.15;;;0.30;99.90;;;;;;4973735;28;20054;-79
2021/12/23 09:07:24;;;;;;;44.00;17.15;;;0.30;99.90;;;;;;4975388;28;20043;-79
2021/12/23 09:09:51;;;;;;;36.70;15.90;;;0.30;99.90;;;;;;4973736;28;20039;-79
2021/12/23 09:12:19;;;;;;;40.05;16.33;;;0.30;99.90;;;;;;4977215;28;20096;-79
2021/12/23 09:14:44;;;;;;;37.75;17.00;;;0.30;99.90;;;;;;4976912;28;20043;-79
2021/12/23 09:17:10;;;;;;;37.88;16.20;;;0.30;99.90;;;;;;4960775;28;20499;-80
2021/12/23 09:19:36;;;;;;;38.72;16.65;;;0.30;99.90;;;;;;4976440;28;20038;-79
2021/12/23 09:22:02;;;;;;;40.33;16.00;;;0.30;99.90;;;;;;4975440;28;20086;-79
2021/12/23 09:24:28;;;;;;;47.80;19.42;;;0.30;99.90;;;;;;4977839;28;20093;-80
2021/12/23 09:27:00;;;;;;;40.33;16.83;;;0.30;99.90;;;;;;4976245;28;20038;-79
2021/12/23 09:34:46;;;;;;;45.00;17.23;;;0.40;99.90;;;;;;4975690;28;20407;-79
2021/12/23 09:37:11;;;;;;;38.50;16.27;;;0.40;99.90;;;;;;4957683;28;20030;-79
2021/12/23 09:39:37;;;;;;;43.78;17.33;;;0.40;99.90;;;;;;4973374;28;20078;-79
2021/12/23 09:42:04;;;;;;;39.45;17.05;;;0.40;99.90;;;;;;4973166;28;20647;-79
2021/12/23 09:44:31;;;;;;;47.33;18.67;;;0.40;99.90;;;;;;4973181;28;20058;-79
2021/12/23 09:47:01;;;;;;;50.47;18.75;;;0.50;99.90;;;;;;4973093;28;20049;-79
2021/12/23 09:49:28;;;;;;;47.38;19.55;;;0.50;99.90;;;;;;4974654;28;20043;-79
2021/12/23 09:51:56;;;;;;;48.28;19.08;;;0.50;99.90;;;;;;4957167;28;20042;-79
2021/12/23 09:54:25;;;;;;;43.25;18.60;;;0.50;99.90;;;;;;4973003;28;20046;-79
2021/12/23 09:56:53;;;;;;;45.58;18.35;;;0.50;99.90;;;;;;4972731;28;20082;-79
2021/12/23 09:59:20;;;;;;;43.55;18.27;;;0.50;99.90;;;;;;4973474;28;20053;-79
2021/12/23 10:01:46;;;;;;;40.03;16.10;;;0.50;99.90;;;;;;4973429;28;20042;-80
2021/12/23 10:04:12;;;;;;;47.40;19.45;;;0.60;99.90;;;;;;4973423;28;20046;-79
2021/12/23 10:06:38;;;;;;;42.38;18.65;;;0.60;99.90;;;;;;4972719;28;20059;-79
2021/12/23 10:09:04;;;;;;;44.00;18.08;;;0.60;99.90;;;;;;4960817;28;20043;-81
2021/12/23 10:12:40;;;;;;;39.03;17.27;;;0.60;99.90;;;;;;4976775;28;20046;-81
2021/12/23 10:31:45;;;;;;;42.20;18.60;;;0.70;99.90;;;;;;4975386;28;20054;-81
2021/12/23 10:37:20;;;;;;;43.97;19.30;;;0.70;99.90;;;;;;4974484;28;20046;-81
2021/12/23 10:40:11;;;;;;;41.63;19.95;;;0.70;99.90;;;;;;4975360;28;20049;-81
2021/12/23 10:42:36;;;;;;;41.50;17.05;;;0.70;99.90;;;;;;4975275;28;20038;-81
2021/12/23 10:45:04;;;;;;;43.65;18.30;;;0.70;99.90;;;;;;4977086;28;20126;-81
2021/12/23 10:47:59;;;;;;;46.38;18.05;;;0.70;99.90;;;;;;4958469;28;20499;-81
2021/12/23 10:50:36;;;;;;;48.78;19.90;;;0.70;99.90;;;;;;4977524;28;20431;-81
2021/12/23 10:53:09;;;;;;;48.75;19.55;;;0.70;99.90;;;;;;4977808;28;20042;-81
2021/12/23 10:58:21;;;;;;;47.33;18.92;;;0.70;99.90;;;;;;4974844;28;20462;-81
2021/12/23 11:00:53;;;;;;;43.10;19.77;;;0.70;99.90;;;;;;4974329;28;20042;-81
2021/12/23 11:03:30;;;;;;;46.03;17.38;;;0.70;99.90;;;;;;4973939;28;20038;-81
2021/12/23 11:27:22;;;;;;;50.55;19.70;;;0.80;99.90;;;;;;4975628;28;20139;-81
2021/12/23 11:28:31;;;;;;;45.88;18.85;;;1.00;99.90;;;;;;4976391;28;20109;-79
2021/12/23 11:36:36;;;;;;;40.97;16.75;;;1.00;99.90;;;;;;4976093;28;20051;-79
2021/12/23 11:39:25;;;;;;;42.78;19.67;;;1.00;99.90;;;;;;4975858;28;20043;-79
2021/12/23 11:42:00;;;;;;;53.40;19.42;;;1.00;99.90;;;;;;4976182;28;20042;-79
2021/12/23 11:44:30;;;;;;;44.03;18.25;;;1.00;99.90;;;;;;4976057;28;20042;-79
2021/12/23 11:46:57;;;;;;;40.80;18.88;;;1.00;99.90;;;;;;4975561;28;20049;-79
2021/12/23 11:49:23;;;;;;;44.50;18.45;;;1.00;99.90;;;;;;4976552;28;20053;-79
2021/12/23 11:54:19;;;;;;;40.35;17.65;;;1.00;99.90;;;;;;4976161;28;20515;-79
2021/12/23 11:56:52;;;;;;;41.78;17.95;;;1.00;99.90;;;;;;4975665;28;20047;-79
2021/12/23 11:59:19;;;;;;;43.90;19.08;;;1.00;99.90;;;;;;4976777;28;20039;-79
2021/12/23 12:01:47;;;;;;;48.20;18.75;;;1.10;99.90;;;;;;4976033;28;20051;-80
2021/12/23 12:04:26;;;;;;;47.00;18.88;;;1.10;99.90;;;;;;4977124;28;20051;-79
2021/12/23 12:06:53;;;;;;;43.85;17.15;;;1.10;99.90;;;;;;4976240;28;20050;-79
2021/12/23 12:09:31;;;;;;;43.38;18.27;;;1.10;99.90;;;;;;4976180;28;20042;-79
2021/12/23 12:11:59;;;;;;;46.63;18.33;;;1.10;99.90;;;;;;4976004;28;20509;-79
2021/12/23 12:14:38;;;;;;;48.10;18.52;;;1.10;99.90;;;;;;4976115;28;20080;-79
2021/12/23 12:17:23;;;;;;;45.25;17.63;;;1.10;99.90;;;;;;4975519;28;20051;-79
2021/12/23 12:19:57;;;;;;;45.55;18.95;;;1.10;99.90;;;;;;4960183;28;20089;-80
2021/12/23 12:22:51;;;;;;;41.67;18.35;;;1.10;99.90;;;;;;4975797;28;20039;-79
2021/12/23 12:25:26;;;;;;;42.63;19.33;;;1.10;99.90;;;;;;4976468;28;20058;-79
2021/12/23 12:28:15;;;;;;;46.97;18.83;;;1.10;99.90;;;;;;4976687;28;20051;-79
2021/12/23 12:30:55;;;;;;;47.88;18.00;;;1.10;99.90;;;;;;4978443;28;20518;-81
2021/12/23 12:33:24;;;;;;;43.58;17.23;;;1.10;99.90;;;;;;4976901;28;20042;-81
2021/12/23 12:36:01;;;;;;;42.25;18.85;;;1.10;99.90;;;;;;4959764;28;20049;-81
2021/12/23 12:38:43;;;;;;;43.95;19.67;;;1.10;99.90;;;;;;4976976;28;20071;-81
2021/12/23 12:41:25;;;;;;;51.88;18.42;;;1.10;99.90;;;;;;4980644;28;20039;-80
2021/12/23 12:44:01;;;;;;;40.85;18.58;;;1.10;99.90;;;;;;4977122;28;20125;-79
2021/12/23 12:46:39;;;;;;;44.17;20.25;;;1.10;99.90;;;;;;4975673;28;20046;-79
2021/12/23 12:49:24;;;;;;;42.00;17.20;;;1.10;99.90;;;;;;4974381;28;20043;-79
2021/12/23 12:51:53;;;;;;;47.03;19.67;;;1.20;99.90;;;;;;4975502;28;20051;-81
2021/12/23 12:54:30;;;;;;;41.10;17.30;;;1.10;99.90;;;;;;4976161;28;20039;-80
2021/12/23 12:56:58;;;;;;;45.90;18.50;;;1.10;99.90;;;;;;4977255;28;20051;-80
2021/12/23 12:59:27;;;;;;;46.22;18.08;;;1.20;99.90;;;;;;4977895;28;20042;-81
2021/12/23 13:01:53;;;;;;;50.72;19.38;;;1.20;99.90;;;;;;4979097;28;20489;-81
2021/12/23 13:04:28;;;;;;;41.95;18.88;;;1.20;99.90;;;;;;4977819;28;20080;-79
2021/12/23 13:06:55;;;;;;;43.58;19.20;;;1.20;99.90;;;;;;4975073;28;20062;-80
2021/12/23 13:09:26;;;;;;;48.75;19.75;;;1.20;99.90;;;;;;4976787;28;20054;-80
2021/12/23 13:11:55;;;;;;;44.38;19.45;;;1.10;99.90;;;;;;4977538;28;20582;-80
2021/12/23 13:14:22;;;;;;;49.70;20.27;;;1.20;99.90;;;;;;4977517;28;20046;-79
2021/12/23 13:16:55;;;;;;;41.75;18.60;;;1.20;99.90;;;;;;4975610;28;20043;-80
2021/12/23 13:19:28;;;;;;;43.10;18.15;;;1.20;99.90;;;;;;4978669;28;20495;-82
2021/12/23 13:21:56;;;;;;;44.85;18.52;;;1.20;99.90;;;;;;4978448;28;20042;-80
2021/12/23 13:24:25;;;;;;;43.85;18.85;;;1.20;99.90;;;;;;4962540;28;20035;-79
2021/12/23 13:26:54;;;;;;;47.13;19.77;;;1.20;99.90;;;;;;4980246;28;20046;-81
2021/12/23 13:29:26;;;;;;;40.25;17.52;;;1.20;99.90;;;;;;4978945;28;20050;-81
2021/12/23 13:31:53;;;;;;;41.78;17.60;;;1.20;99.90;;;;;;4961901;28;20483;-81
2021/12/23 13:34:28;;;;;;;48.40;19.77;;;1.20;99.90;;;;;;4978227;28;20047;-82
2021/12/23 13:36:56;;;;;;;44.95;19.52;;;1.20;99.90;;;;;;4979391;28;20042;-81
2021/12/23 13:39:25;;;;;;;47.30;18.80;;;1.20;99.90;;;;;;4982025;28;20047;-79
2021/12/23 13:41:54;;;;;;;52.50;19.25;;;1.20;99.90;;;;;;4974873;28;20374;-79